Time;durP1;ratioP1;P1;durP2;ratioP2;P2;SDS_P1;SDS_P2;PMS_P1;PMS_P2;Temp;Humidity;BMP_temperature;BMP_pressure;BME280_temperature;BME280_humidity;BME280_pressure;Samples;Min_cycle;Max_cycle;Signal;HPM_P1;HPM_P2
2021/12/03 00:03:40;;;;;;;1.62;1.20;;;9.00;86.70;;;;;;10825669;33;20052;-69
2021/12/03 00:09:42;;;;;;;3.00;1.40;;;9.10;86.60;;;;;;10821095;33;20046;-69
2021/12/03 00:15:44;;;;;;;2.72;1.48;;;9.10;86.40;;;;;;10825328;33;20008;-69
2021/12/03 00:21:46;;;;;;;2.30;0.93;;;9.20;86.30;;;;;;10820892;33;20036;-69
2021/12/03 00:27:49;;;;;;;2.67;1.08;;;9.20;86.10;;;;;;10825056;33;20035;-69
2021/12/03 00:33:51;;;;;;;2.12;1.15;;;9.20;86.00;;;;;;10824843;33;20020;-69
2021/12/03 00:39:54;;;;;;;3.10;1.27;;;9.10;86.00;;;;;;10824694;33;20392;-69
2021/12/03 00:46:04;;;;;;;1.40;0.77;;;9.10;85.90;;;;;;10824466;33;20328;-69
2021/12/03 00:52:07;;;;;;;1.73;1.10;;;9.10;85.90;;;;;;10823964;33;20016;-69
2021/12/03 00:58:09;;;;;;;1.27;0.93;;;9.20;85.90;;;;;;10874860;32;20032;-69
2021/12/03 01:04:11;;;;;;;3.40;1.55;;;9.20;85.80;;;;;;10874813;32;20027;-69
2021/12/03 01:10:15;;;;;;;2.62;1.80;;;9.00;85.80;;;;;;10874752;32;20047;-69
2021/12/03 01:16:17;;;;;;;2.62;1.25;;;8.80;86.00;;;;;;10824034;33;20016;-69
2021/12/03 01:22:19;;;;;;;2.20;1.55;;;9.00;86.10;;;;;;10821218;33;20446;-69
2021/12/03 01:28:22;;;;;;;2.08;1.25;;;9.10;86.30;;;;;;10830084;33;20016;-69
2021/12/03 01:34:24;;;;;;;2.40;1.37;;;9.20;86.10;;;;;;10829846;33;20054;-69
2021/12/03 01:40:28;;;;;;;2.75;1.45;;;9.20;85.80;;;;;;10829671;33;20038;-69
2021/12/03 01:46:32;;;;;;;1.93;1.10;;;8.90;85.90;;;;;;10372112;27;12078899;-69
2021/12/03 01:52:34;;;;;;;3.40;1.73;;;8.80;86.00;;;;;;10716183;33;20029;-69
2021/12/03 01:58:37;;;;;;;2.05;1.00;;;8.80;86.00;;;;;;10716233;33;20051;-69
2021/12/03 02:04:39;;;;;;;2.67;1.58;;;8.80;86.00;;;;;;10715568;33;20033;-69
2021/12/03 02:10:42;;;;;;;2.95;1.92;;;8.80;85.90;;;;;;10760180;33;20021;-69
2021/12/03 02:16:45;;;;;;;2.75;1.25;;;8.90;85.70;;;;;;10791909;33;20025;-69
2021/12/03 02:22:48;;;;;;;4.22;2.05;;;8.90;85.60;;;;;;10778682;33;20043;-69
2021/12/03 02:28:51;;;;;;;3.30;1.27;;;8.90;85.50;;;;;;10778575;32;20100;-69
2021/12/03 02:34:53;;;;;;;3.37;2.12;;;8.90;85.40;;;;;;10791246;33;20016;-69
2021/12/03 02:40:56;;;;;;;3.42;2.45;;;8.80;85.60;;;;;;10791208;33;20443;-69
2021/12/03 02:46:58;;;;;;;3.78;2.47;;;8.90;85.60;;;;;;10790984;33;20043;-68
2021/12/03 02:53:01;;;;;;;3.75;2.08;;;9.00;85.60;;;;;;10790978;33;20381;-68
2021/12/03 02:59:04;;;;;;;2.67;1.75;;;9.00;85.40;;;;;;10790579;33;20017;-68
2021/12/03 03:05:09;;;;;;;3.05;1.98;;;8.90;85.60;;;;;;10778793;33;20043;-69
2021/12/03 03:11:11;;;;;;;3.72;1.80;;;8.90;85.60;;;;;;10777332;32;20056;-69
2021/12/03 03:17:14;;;;;;;3.85;2.40;;;8.90;85.50;;;;;;10790122;33;20028;-69
2021/12/03 03:23:17;;;;;;;5.32;2.85;;;8.80;85.50;;;;;;10790022;33;20306;-69
2021/12/03 03:29:19;;;;;;;3.37;2.05;;;8.60;85.50;;;;;;10789839;33;20344;-69
2021/12/03 03:35:21;;;;;;;4.70;3.00;;;8.30;85.60;;;;;;10789759;32;20332;-69
2021/12/03 03:41:23;;;;;;;4.72;2.53;;;8.40;85.90;;;;;;10789400;33;20046;-69
2021/12/03 03:47:25;;;;;;;3.75;2.30;;;8.50;85.90;;;;;;10788205;33;20302;-69
2021/12/03 03:53:27;;;;;;;5.00;3.15;;;8.50;85.70;;;;;;10776131;33;20055;-69
2021/12/03 03:59:29;;;;;;;5.07;3.55;;;8.40;85.80;;;;;;10786577;33;20024;-69
2021/12/03 04:05:31;;;;;;;13.62;9.20;;;8.60;85.90;;;;;;10788796;33;20036;-69
2021/12/03 04:11:34;;;;;;;9.80;6.93;;;8.50;85.60;;;;;;10776294;33;20004;-69
2021/12/03 04:17:37;;;;;;;7.70;4.93;;;8.40;85.80;;;;;;10788691;33;20054;-69
2021/12/03 04:23:39;;;;;;;10.05;7.37;;;8.40;86.10;;;;;;10788190;33;20028;-69
2021/12/03 04:29:41;;;;;;;5.55;3.22;;;8.30;85.40;;;;;;10788180;33;20063;-69
2021/12/03 04:35:43;;;;;;;7.30;3.70;;;8.20;86.20;;;;;;10788109;33;20017;-69
2021/12/03 04:41:45;;;;;;;7.12;4.40;;;8.30;86.40;;;;;;10787815;33;20012;-69
2021/12/03 04:47:50;;;;;;;7.85;4.97;;;8.40;86.20;;;;;;10787885;33;20020;-69
2021/12/03 04:53:51;;;;;;;9.70;6.28;;;8.40;86.30;;;;;;10787524;33;20028;-69
2021/12/03 04:59:53;;;;;;;11.05;6.65;;;8.40;86.30;;;;;;10793121;33;20043;-69
2021/12/03 05:06:00;;;;;;;8.93;5.32;;;8.30;85.90;;;;;;10793959;33;20020;-69
2021/12/03 05:12:04;;;;;;;10.82;6.47;;;8.20;86.00;;;;;;10793667;33;20348;-69
2021/12/03 05:18:09;;;;;;;9.50;4.37;;;8.20;86.20;;;;;;10780537;33;20046;-73
2021/12/03 05:24:13;;;;;;;7.15;4.40;;;8.30;86.20;;;;;;10780616;33;20050;-74
2021/12/03 05:30:15;;;;;;;10.10;6.37;;;8.40;86.30;;;;;;10793152;33;20074;-74
2021/12/03 05:36:17;;;;;;;12.02;5.97;;;8.50;86.30;;;;;;10792960;33;20431;-74
2021/12/03 05:42:19;;;;;;;7.18;3.85;;;8.60;86.20;;;;;;10792801;33;20109;-73
2021/12/03 05:48:21;;;;;;;14.52;6.93;;;8.70;86.10;;;;;;10792725;33;20042;-69
2021/12/03 05:54:25;;;;;;;10.00;5.28;;;8.60;86.00;;;;;;10792510;33;20029;-69
2021/12/03 06:00:38;;;;;;;9.35;5.28;;;8.70;86.20;;;;;;10792470;33;20341;-69
2021/12/03 06:07:25;;;;;;;11.15;6.90;;;8.80;86.20;;;;;;10791911;33;20055;-73
2021/12/03 06:13:31;;;;;;;6.97;4.05;;;9.00;86.00;;;;;;10794977;32;20032;-75
2021/12/03 06:19:33;;;;;;;6.28;4.15;;;9.00;85.70;;;;;;10793503;32;20035;-75
2021/12/03 06:26:15;;;;;;;7.90;4.93;;;8.90;85.50;;;;;;10793307;32;20042;-75
2021/12/03 06:32:31;;;;;;;10.13;6.10;;;9.00;85.50;;;;;;10793244;32;20024;-74
2021/12/03 06:38:34;;;;;;;18.42;12.77;;;9.20;85.60;;;;;;10792220;32;20024;-75
2021/12/03 06:44:36;;;;;;;14.38;8.10;;;9.30;85.30;;;;;;10792777;33;20029;-72
2021/12/03 06:50:40;;;;;;;19.83;11.02;;;9.40;85.30;;;;;;10791193;33;20024;-74
2021/12/03 06:56:47;;;;;;;16.67;11.75;;;9.60;85.00;;;;;;10790567;33;20020;-74
2021/12/03 07:02:49;;;;;;;16.27;10.30;;;9.60;84.90;;;;;;10790331;33;20020;-74
2021/12/03 07:08:51;;;;;;;13.75;9.77;;;9.70;84.80;;;;;;10789701;32;20029;-74
2021/12/03 07:14:53;;;;;;;13.55;7.93;;;9.80;84.50;;;;;;10784053;33;20298;-73
2021/12/03 07:20:55;;;;;;;11.48;6.80;;;9.80;84.20;;;;;;10787541;33;20058;-73
2021/12/03 07:26:57;;;;;;;11.82;7.87;;;9.50;84.30;;;;;;10781598;32;20028;-73
2021/12/03 07:33:11;;;;;;;10.55;6.95;;;9.60;84.40;;;;;;10770713;33;20029;-73
2021/12/03 07:39:14;;;;;;;11.12;7.68;;;9.70;84.10;;;;;;10750546;33;20021;-73
2021/12/03 07:45:17;;;;;;;8.98;5.78;;;10.00;83.70;;;;;;10752330;33;20017;-73
2021/12/03 07:51:20;;;;;;;11.85;7.97;;;10.10;83.40;;;;;;10739814;32;20325;-73
2021/12/03 07:58:07;;;;;;;10.40;7.20;;;10.10;83.30;;;;;;10752243;33;20020;-74
2021/12/03 08:04:10;;;;;;;12.95;8.65;;;10.20;83.50;;;;;;10752207;33;20021;-75
2021/12/03 08:10:13;;;;;;;8.25;5.50;;;10.40;83.20;;;;;;10752064;33;20055;-74
2021/12/03 08:16:16;;;;;;;8.15;5.90;;;10.40;83.00;;;;;;10748582;33;20020;-74
2021/12/03 08:22:20;;;;;;;11.00;6.82;;;10.50;83.00;;;;;;10751228;33;20365;-74
2021/12/03 08:28:23;;;;;;;10.98;6.95;;;10.60;82.80;;;;;;10751590;33;20035;-73
2021/12/03 08:34:25;;;;;;;12.45;9.00;;;10.60;82.70;;;;;;10752112;33;20400;-73
2021/12/03 08:40:27;;;;;;;11.93;6.57;;;10.60;82.80;;;;;;10774558;33;20050;-74
2021/12/03 08:58:34;;;;;;;9.05;5.75;;;10.70;82.70;;;;;;10787344;33;20016;-73
2021/12/03 09:04:36;;;;;;;7.20;3.87;;;10.80;83.00;;;;;;10787300;33;20016;-73
2021/12/03 09:10:41;;;;;;;8.05;4.45;;;11.00;83.20;;;;;;10768624;33;20037;-73
2021/12/03 09:16:45;;;;;;;6.00;3.50;;;11.20;83.00;;;;;;10745916;33;20025;-73
2021/12/03 09:22:53;;;;;;;7.18;3.80;;;11.20;82.80;;;;;;10746483;33;20409;-73
2021/12/03 09:29:01;;;;;;;6.57;4.00;;;11.30;83.00;;;;;;10768562;32;20408;-73
2021/12/03 09:35:04;;;;;;;7.20;4.20;;;11.60;82.90;;;;;;10786627;33;20021;-74
2021/12/03 09:41:15;;;;;;;4.18;2.92;;;11.60;82.80;;;;;;10778789;27;20028;-73
2021/12/03 09:47:21;;;;;;;4.70;2.55;;;11.60;82.80;;;;;;10755108;33;20040;-74
2021/12/03 09:53:59;;;;;;;3.75;2.17;;;11.50;82.80;;;;;;10738067;33;20059;-74
2021/12/03 10:12:31;;;;;;;3.45;1.58;;;12.00;82.70;;;;;;10751748;33;20029;-71
2021/12/03 10:18:51;;;;;;;4.55;2.45;;;12.20;82.50;;;;;;10737996;33;20400;-70
2021/12/03 10:37:45;;;;;;;2.85;1.58;;;12.20;82.50;;;;;;10744763;33;20032;-70
2021/12/03 10:56:57;;;;;;;3.90;2.12;;;12.20;82.30;;;;;;10792045;33;20317;-69
2021/12/03 11:16:31;;;;;;;3.05;1.65;;;12.00;82.50;;;;;;10792273;33;20025;-70
2021/12/03 12:15:07;;;;;;;5.53;1.75;;;13.20;81.40;;;;;;10750487;33;20055;-70
2021/12/03 13:12:41;;;;;;;1.95;1.00;;;13.10;79.90;;;;;;10674422;33;20033;-70
2021/12/03 15:07:19;;;;;;;2.10;1.17;;;13.20;81.50;;;;;;10830336;32;20082;-70
2021/12/03 16:09:15;;;;;;;5.80;4.05;;;11.20;81.20;;;;;;10752206;32;20024;-70
2021/12/03 16:22:07;;;;;;;6.18;4.15;;;11.00;81.00;;;;;;10748286;33;20024;-70
2021/12/03 16:47:34;;;;;;;11.80;6.20;;;10.60;80.60;;;;;;10752629;32;20325;-70
2021/12/03 16:53:36;;;;;;;8.98;6.87;;;10.50;80.50;;;;;;10754401;33;20009;-70
2021/12/03 16:59:42;;;;;;;11.85;8.18;;;10.30;80.50;;;;;;10757679;33;20405;-70
2021/12/03 17:56:35;;;;;;;14.73;8.93;;;9.80;80.30;;;;;;10716266;32;20028;-70
2021/12/03 18:02:43;;;;;;;19.95;11.43;;;9.70;80.30;;;;;;10825425;32;20093;-70
2021/12/03 18:53:22;;;;;;;11.50;6.90;;;9.50;81.80;;;;;;10827480;33;20042;-70
2021/12/03 18:59:26;;;;;;;11.20;7.62;;;9.50;81.80;;;;;;10827219;33;20050;-70
2021/12/03 19:17:51;;;;;;;8.32;6.03;;;9.50;81.80;;;;;;10826529;32;20008;-70
2021/12/03 19:24:22;;;;;;;10.35;7.32;;;9.30;82.00;;;;;;10826275;33;20078;-70
2021/12/03 19:30:24;;;;;;;9.07;6.10;;;9.30;82.00;;;;;;10826333;33;20377;-70
2021/12/03 19:36:27;;;;;;;7.07;5.15;;;9.20;82.10;;;;;;10825982;33;20059;-70
2021/12/03 19:42:36;;;;;;;7.78;4.80;;;9.00;81.90;;;;;;10824623;33;20058;-68
2021/12/03 19:55:01;;;;;;;9.15;4.60;;;8.70;82.30;;;;;;10936964;32;20226;-70
2021/12/03 20:01:04;;;;;;;7.85;4.53;;;8.60;82.20;;;;;;10908775;32;20075;-70
2021/12/03 20:07:47;;;;;;;7.37;5.00;;;8.40;82.50;;;;;;10897490;32;20453;-70
2021/12/03 20:13:51;;;;;;;8.68;4.93;;;8.40;82.40;;;;;;10888950;32;20027;-70
2021/12/03 20:19:56;;;;;;;9.55;6.40;;;8.40;82.50;;;;;;10901605;32;20054;-70
2021/12/03 20:32:38;;;;;;;12.98;7.00;;;8.60;82.30;;;;;;10802475;32;20066;-70
2021/12/03 20:38:40;;;;;;;10.65;7.40;;;8.50;82.20;;;;;;10787098;33;20020;-70
2021/12/03 21:10:52;;;;;;;6.40;4.37;;;8.30;82.90;;;;;;10824123;33;20029;-69
2021/12/03 21:17:27;;;;;;;7.68;4.25;;;8.40;82.90;;;;;;10823804;33;20016;-70
2021/12/03 21:23:44;;;;;;;9.48;4.95;;;8.50;82.70;;;;;;10823608;33;20028;-69
2021/12/03 21:30:17;;;;;;;8.35;5.47;;;8.50;82.70;;;;;;10823901;32;20400;-69
2021/12/03 21:42:55;;;;;;;6.82;3.65;;;8.70;82.80;;;;;;10828601;32;20027;-69
2021/12/03 21:48:57;;;;;;;7.28;4.32;;;8.60;82.60;;;;;;10829308;33;20020;-70
2021/12/03 21:55:46;;;;;;;6.97;3.87;;;8.50;82.50;;;;;;10793390;33;20021;-70
2021/12/03 22:01:48;;;;;;;6.00;4.25;;;8.40;82.40;;;;;;10676002;33;20048;-70
2021/12/03 22:07:50;;;;;;;5.97;3.97;;;8.20;82.70;;;;;;10666304;33;20044;-70
2021/12/03 22:13:52;;;;;;;10.52;6.20;;;8.20;82.70;;;;;;10679615;33;20044;-70
2021/12/03 22:19:54;;;;;;;10.45;7.15;;;8.40;82.80;;;;;;10679403;33;20052;-70
2021/12/03 22:25:57;;;;;;;10.80;6.93;;;8.50;82.80;;;;;;10679101;33;20370;-70
2021/12/03 22:31:59;;;;;;;13.15;6.90;;;8.60;82.70;;;;;;10697841;33;20032;-70
2021/12/03 22:38:02;;;;;;;8.82;6.07;;;8.60;82.30;;;;;;10791377;33;20054;-70
2021/12/03 22:44:22;;;;;;;10.07;5.75;;;8.60;81.80;;;;;;10791241;33;20063;-70
2021/12/03 22:50:30;;;;;;;6.97;5.18;;;8.50;81.90;;;;;;10790901;33;20012;-70
2021/12/03 22:56:32;;;;;;;8.75;4.93;;;8.50;82.00;;;;;;10790981;33;20325;-70
2021/12/03 23:02:34;;;;;;;8.60;6.05;;;8.50;82.10;;;;;;10790649;33;20086;-70
2021/12/03 23:08:35;;;;;;;10.27;7.55;;;8.50;82.10;;;;;;10790735;33;20353;-70
2021/12/03 23:14:41;;;;;;;9.45;5.75;;;8.50;82.10;;;;;;10787133;33;20401;-70
2021/12/03 23:20:43;;;;;;;11.65;6.55;;;8.30;82.20;;;;;;10790223;33;20024;-70
2021/12/03 23:26:47;;;;;;;9.10;6.05;;;8.30;82.30;;;;;;10790204;33;20381;-70
2021/12/03 23:32:55;;;;;;;10.68;6.75;;;8.20;82.30;;;;;;10789889;33;20060;-69
2021/12/03 23:38:57;;;;;;;13.73;7.97;;;8.20;82.30;;;;;;10789718;33;20016;-70
2021/12/03 23:44:59;;;;;;;12.68;8.50;;;8.30;82.30;;;;;;10789285;33;20028;-69
2021/12/03 23:51:02;;;;;;;9.93;7.53;;;8.30;82.40;;;;;;10789432;33;20005;-70
2021/12/03 23:57:06;;;;;;;15.20;7.37;;;8.30;82.60;;;;;;10789235;33;20056;-70
